sensor_id;sensor_type;location;lat;lon;timestamp;P1;durP1;ratioP1;P2;durP2;ratioP2
44728;SDS011;30457;53.590;9.922;2023-01-24T00:00:13;25.02;;;15.60;;
44728;SDS011;30457;53.590;9.922;2023-01-24T00:04:39;23.52;;;15.88;;
44728;SDS011;30457;53.590;9.922;2023-01-24T00:09:04;25.33;;;16.33;;
44728;SDS011;30457;53.590;9.922;2023-01-24T00:13:30;21.92;;;15.82;;
44728;SDS011;30457;53.590;9.922;2023-01-24T00:17:56;19.85;;;15.63;;
44728;SDS011;30457;53.590;9.922;2023-01-24T00:22:22;20.90;;;14.07;;
44728;SDS011;30457;53.590;9.922;2023-01-24T00:26:47;23.48;;;14.93;;
44728;SDS011;30457;53.590;9.922;2023-01-24T00:31:13;26.98;;;15.48;;
44728;SDS011;30457;53.590;9.922;2023-01-24T00:35:39;24.30;;;15.77;;
44728;SDS011;30457;53.590;9.922;2023-01-24T00:40:04;22.00;;;15.70;;
44728;SDS011;30457;53.590;9.922;2023-01-24T00:44:30;26.80;;;14.55;;
44728;SDS011;30457;53.590;9.922;2023-01-24T00:48:56;23.73;;;14.68;;
44728;SDS011;30457;53.590;9.922;2023-01-24T00:53:22;18.02;;;14.90;;
44728;SDS011;30457;53.590;9.922;2023-01-24T00:57:48;20.73;;;14.95;;
44728;SDS011;30457;53.590;9.922;2023-01-24T01:02:13;17.83;;;15.10;;
44728;SDS011;30457;53.590;9.922;2023-01-24T01:06:39;21.95;;;15.75;;
44728;SDS011;30457;53.590;9.922;2023-01-24T01:11:05;20.02;;;15.13;;
44728;SDS011;30457;53.590;9.922;2023-01-24T01:15:30;17.85;;;14.07;;
44728;SDS011;30457;53.590;9.922;2023-01-24T01:19:57;24.40;;;14.95;;
44728;SDS011;30457;53.590;9.922;2023-01-24T01:24:23;19.25;;;14.48;;
44728;SDS011;30457;53.590;9.922;2023-01-24T01:28:49;21.23;;;14.68;;
44728;SDS011;30457;53.590;9.922;2023-01-24T01:33:15;19.52;;;14.20;;
44728;SDS011;30457;53.590;9.922;2023-01-24T01:37:40;27.13;;;16.88;;
44728;SDS011;30457;53.590;9.922;2023-01-24T01:42:06;20.08;;;14.40;;
44728;SDS011;30457;53.590;9.922;2023-01-24T01:46:36;20.90;;;14.57;;
44728;SDS011;30457;53.590;9.922;2023-01-24T01:51:11;22.23;;;14.93;;
44728;SDS011;30457;53.590;9.922;2023-01-24T01:55:40;15.70;;;14.00;;
44728;SDS011;30457;53.590;9.922;2023-01-24T02:00:13;17.65;;;13.48;;
44728;SDS011;30457;53.590;9.922;2023-01-24T02:04:55;23.83;;;15.70;;
44728;SDS011;30457;53.590;9.922;2023-01-24T02:09:25;20.02;;;13.50;;
44728;SDS011;30457;53.590;9.922;2023-01-24T02:13:53;16.95;;;13.48;;
44728;SDS011;30457;53.590;9.922;2023-01-24T02:18:40;16.95;;;13.65;;
44728;SDS011;30457;53.590;9.922;2023-01-24T02:27:54;15.07;;;13.48;;
44728;SDS011;30457;53.590;9.922;2023-01-24T02:32:20;17.77;;;13.38;;
44728;SDS011;30457;53.590;9.922;2023-01-24T02:36:46;15.40;;;13.27;;
44728;SDS011;30457;53.590;9.922;2023-01-24T02:41:16;16.55;;;12.93;;
44728;SDS011;30457;53.590;9.922;2023-01-24T02:45:47;17.08;;;12.73;;
44728;SDS011;30457;53.590;9.922;2023-01-24T02:50:12;18.17;;;13.77;;
44728;SDS011;30457;53.590;9.922;2023-01-24T02:54:39;13.52;;;12.20;;
44728;SDS011;30457;53.590;9.922;2023-01-24T02:59:04;10.50;;;9.52;;
44728;SDS011;30457;53.590;9.922;2023-01-24T03:03:32;13.27;;;11.15;;
44728;SDS011;30457;53.590;9.922;2023-01-24T03:07:58;17.77;;;14.05;;
44728;SDS011;30457;53.590;9.922;2023-01-24T03:12:24;16.92;;;14.15;;
44728;SDS011;30457;53.590;9.922;2023-01-24T03:17:09;16.95;;;13.10;;
44728;SDS011;30457;53.590;9.922;2023-01-24T03:21:53;14.27;;;12.75;;
44728;SDS011;30457;53.590;9.922;2023-01-24T03:26:37;17.60;;;13.18;;
44728;SDS011;30457;53.590;9.922;2023-01-24T03:31:21;18.08;;;13.52;;
44728;SDS011;30457;53.590;9.922;2023-01-24T03:36:05;15.73;;;13.13;;
44728;SDS011;30457;53.590;9.922;2023-01-24T03:40:50;17.35;;;13.15;;
44728;SDS011;30457;53.590;9.922;2023-01-24T03:49:49;18.70;;;14.13;;
44728;SDS011;30457;53.590;9.922;2023-01-24T03:54:33;17.52;;;12.85;;
44728;SDS011;30457;53.590;9.922;2023-01-24T03:59:03;20.45;;;14.25;;
44728;SDS011;30457;53.590;9.922;2023-01-24T04:03:32;19.75;;;14.30;;
44728;SDS011;30457;53.590;9.922;2023-01-24T04:07:57;19.02;;;13.63;;
44728;SDS011;30457;53.590;9.922;2023-01-24T04:12:23;19.77;;;14.45;;
44728;SDS011;30457;53.590;9.922;2023-01-24T04:16:50;20.55;;;14.65;;
44728;SDS011;30457;53.590;9.922;2023-01-24T04:21:19;21.20;;;14.60;;
44728;SDS011;30457;53.590;9.922;2023-01-24T04:25:49;17.10;;;13.48;;
44728;SDS011;30457;53.590;9.922;2023-01-24T04:30:20;17.02;;;13.15;;
44728;SDS011;30457;53.590;9.922;2023-01-24T04:34:49;17.75;;;14.45;;
44728;SDS011;30457;53.590;9.922;2023-01-24T04:39:23;18.73;;;15.15;;
44728;SDS011;30457;53.590;9.922;2023-01-24T04:44:12;18.48;;;13.15;;
44728;SDS011;30457;53.590;9.922;2023-01-24T04:48:38;19.40;;;14.23;;
44728;SDS011;30457;53.590;9.922;2023-01-24T04:53:04;18.83;;;14.20;;
44728;SDS011;30457;53.590;9.922;2023-01-24T04:57:31;18.50;;;13.55;;
44728;SDS011;30457;53.590;9.922;2023-01-24T05:01:58;17.27;;;13.40;;
44728;SDS011;30457;53.590;9.922;2023-01-24T05:06:35;18.40;;;12.85;;
44728;SDS011;30457;53.590;9.922;2023-01-24T05:11:01;12.32;;;11.18;;
44728;SDS011;30457;53.590;9.922;2023-01-24T05:15:31;11.68;;;10.52;;
44728;SDS011;30457;53.590;9.922;2023-01-24T05:19:58;12.70;;;11.35;;
44728;SDS011;30457;53.590;9.922;2023-01-24T05:24:24;14.73;;;11.98;;
44728;SDS011;30457;53.590;9.922;2023-01-24T05:28:50;12.77;;;11.48;;
44728;SDS011;30457;53.590;9.922;2023-01-24T05:33:17;12.75;;;11.45;;
44728;SDS011;30457;53.590;9.922;2023-01-24T05:37:43;12.20;;;10.82;;
44728;SDS011;30457;53.590;9.922;2023-01-24T05:42:09;16.30;;;11.63;;
44728;SDS011;30457;53.590;9.922;2023-01-24T05:46:43;17.63;;;12.68;;
44728;SDS011;30457;53.590;9.922;2023-01-24T05:51:17;14.60;;;12.63;;
44728;SDS011;30457;53.590;9.922;2023-01-24T05:55:44;12.68;;;11.48;;
44728;SDS011;30457;53.590;9.922;2023-01-24T06:00:10;12.85;;;11.63;;
44728;SDS011;30457;53.590;9.922;2023-01-24T06:04:55;11.00;;;9.88;;
44728;SDS011;30457;53.590;9.922;2023-01-24T06:09:21;10.95;;;9.77;;
44728;SDS011;30457;53.590;9.922;2023-01-24T06:13:47;11.77;;;10.25;;
44728;SDS011;30457;53.590;9.922;2023-01-24T06:18:14;12.23;;;10.93;;
44728;SDS011;30457;53.590;9.922;2023-01-24T06:27:10;11.05;;;10.05;;
44728;SDS011;30457;53.590;9.922;2023-01-24T06:41:10;10.82;;;9.95;;
44728;SDS011;30457;53.590;9.922;2023-01-24T06:45:39;13.48;;;12.13;;
44728;SDS011;30457;53.590;9.922;2023-01-24T06:50:05;11.32;;;10.23;;
44728;SDS011;30457;53.590;9.922;2023-01-24T06:54:33;11.82;;;10.40;;
44728;SDS011;30457;53.590;9.922;2023-01-24T06:58:59;11.95;;;10.63;;
44728;SDS011;30457;53.590;9.922;2023-01-24T07:03:25;13.57;;;12.18;;
44728;SDS011;30457;53.590;9.922;2023-01-24T07:07:50;13.05;;;11.82;;
44728;SDS011;30457;53.590;9.922;2023-01-24T07:12:16;12.15;;;11.00;;
44728;SDS011;30457;53.590;9.922;2023-01-24T07:16:41;13.15;;;11.95;;
44728;SDS011;30457;53.590;9.922;2023-01-24T07:21:07;12.48;;;11.27;;
44728;SDS011;30457;53.590;9.922;2023-01-24T07:25:33;13.00;;;11.80;;
44728;SDS011;30457;53.590;9.922;2023-01-24T07:30:02;12.18;;;11.02;;
44728;SDS011;30457;53.590;9.922;2023-01-24T07:34:28;11.77;;;10.73;;
44728;SDS011;30457;53.590;9.922;2023-01-24T07:38:54;13.70;;;11.07;;
44728;SDS011;30457;53.590;9.922;2023-01-24T07:43:21;14.00;;;12.57;;
44728;SDS011;30457;53.590;9.922;2023-01-24T07:47:46;13.25;;;12.05;;
44728;SDS011;30457;53.590;9.922;2023-01-24T07:52:12;13.02;;;11.73;;
44728;SDS011;30457;53.590;9.922;2023-01-24T07:56:37;13.90;;;12.60;;
44728;SDS011;30457;53.590;9.922;2023-01-24T08:01:03;13.65;;;12.25;;
44728;SDS011;30457;53.590;9.922;2023-01-24T08:05:29;13.25;;;11.95;;
44728;SDS011;30457;53.590;9.922;2023-01-24T08:09:55;12.00;;;11.00;;
44728;SDS011;30457;53.590;9.922;2023-01-24T08:14:21;12.40;;;11.10;;
44728;SDS011;30457;53.590;9.922;2023-01-24T08:18:47;13.75;;;10.80;;
44728;SDS011;30457;53.590;9.922;2023-01-24T08:23:12;12.90;;;11.60;;
44728;SDS011;30457;53.590;9.922;2023-01-24T08:27:41;16.35;;;11.15;;
44728;SDS011;30457;53.590;9.922;2023-01-24T08:32:07;13.68;;;12.00;;
44728;SDS011;30457;53.590;9.922;2023-01-24T08:36:32;12.07;;;10.88;;
44728;SDS011;30457;53.590;9.922;2023-01-24T08:41:01;12.50;;;11.30;;
44728;SDS011;30457;53.590;9.922;2023-01-24T08:45:27;18.33;;;13.18;;
44728;SDS011;30457;53.590;9.922;2023-01-24T08:49:54;13.05;;;11.85;;
44728;SDS011;30457;53.590;9.922;2023-01-24T08:54:19;12.32;;;11.32;;
44728;SDS011;30457;53.590;9.922;2023-01-24T08:58:45;11.80;;;10.77;;
44728;SDS011;30457;53.590;9.922;2023-01-24T09:03:11;15.25;;;12.60;;
44728;SDS011;30457;53.590;9.922;2023-01-24T09:07:37;12.88;;;11.63;;
44728;SDS011;30457;53.590;9.922;2023-01-24T09:12:05;12.27;;;11.18;;
44728;SDS011;30457;53.590;9.922;2023-01-24T09:16:31;12.30;;;11.20;;
44728;SDS011;30457;53.590;9.922;2023-01-24T09:20:59;13.25;;;11.65;;
44728;SDS011;30457;53.590;9.922;2023-01-24T09:25:27;12.18;;;10.93;;
44728;SDS011;30457;53.590;9.922;2023-01-24T09:29:55;12.35;;;11.05;;
44728;SDS011;30457;53.590;9.922;2023-01-24T09:34:21;11.75;;;10.65;;
44728;SDS011;30457;53.590;9.922;2023-01-24T09:38:46;13.40;;;10.38;;
44728;SDS011;30457;53.590;9.922;2023-01-24T09:43:16;12.82;;;10.93;;
44728;SDS011;30457;53.590;9.922;2023-01-24T09:47:59;11.80;;;10.65;;
44728;SDS011;30457;53.590;9.922;2023-01-24T09:57:10;12.70;;;11.43;;
44728;SDS011;30457;53.590;9.922;2023-01-24T10:01:41;12.85;;;10.57;;
44728;SDS011;30457;53.590;9.922;2023-01-24T10:06:14;12.80;;;11.60;;
44728;SDS011;30457;53.590;9.922;2023-01-24T10:10:44;12.38;;;10.88;;
44728;SDS011;30457;53.590;9.922;2023-01-24T10:15:15;11.75;;;10.32;;
44728;SDS011;30457;53.590;9.922;2023-01-24T10:19:55;11.18;;;10.13;;
44728;SDS011;30457;53.590;9.922;2023-01-24T10:24:37;11.90;;;10.63;;
44728;SDS011;30457;53.590;9.922;2023-01-24T10:29:13;12.57;;;11.05;;
44728;SDS011;30457;53.590;9.922;2023-01-24T10:33:46;12.88;;;11.57;;
44728;SDS011;30457;53.590;9.922;2023-01-24T10:38:13;13.70;;;12.30;;
44728;SDS011;30457;53.590;9.922;2023-01-24T10:42:42;12.90;;;11.55;;
44728;SDS011;30457;53.590;9.922;2023-01-24T10:47:12;12.05;;;10.85;;
44728;SDS011;30457;53.590;9.922;2023-01-24T10:52:25;12.85;;;11.50;;
44728;SDS011;30457;53.590;9.922;2023-01-24T10:56:44;13.40;;;11.77;;
44728;SDS011;30457;53.590;9.922;2023-01-24T11:01:18;12.60;;;11.43;;
44728;SDS011;30457;53.590;9.922;2023-01-24T11:05:46;12.55;;;11.20;;
44728;SDS011;30457;53.590;9.922;2023-01-24T11:14:44;14.30;;;12.13;;
44728;SDS011;30457;53.590;9.922;2023-01-24T11:19:46;12.20;;;10.98;;
44728;SDS011;30457;53.590;9.922;2023-01-24T11:28:35;13.43;;;12.02;;
44728;SDS011;30457;53.590;9.922;2023-01-24T11:47:23;11.70;;;10.60;;
44728;SDS011;30457;53.590;9.922;2023-01-24T12:01:30;13.13;;;10.55;;
44728;SDS011;30457;53.590;9.922;2023-01-24T12:06:32;13.68;;;10.77;;
44728;SDS011;30457;53.590;9.922;2023-01-24T12:11:27;12.77;;;10.70;;
44728;SDS011;30457;53.590;9.922;2023-01-24T12:20:56;12.02;;;10.82;;
44728;SDS011;30457;53.590;9.922;2023-01-24T12:25:32;10.48;;;9.48;;
44728;SDS011;30457;53.590;9.922;2023-01-24T12:30:06;11.23;;;10.10;;
44728;SDS011;30457;53.590;9.922;2023-01-24T12:34:53;13.20;;;11.65;;
44728;SDS011;30457;53.590;9.922;2023-01-24T12:39:29;14.68;;;10.93;;
44728;SDS011;30457;53.590;9.922;2023-01-24T12:53:48;11.23;;;10.13;;
44728;SDS011;30457;53.590;9.922;2023-01-24T12:58:34;12.77;;;11.00;;
44728;SDS011;30457;53.590;9.922;2023-01-24T13:08:11;13.40;;;11.95;;
44728;SDS011;30457;53.590;9.922;2023-01-24T13:12:48;12.95;;;11.40;;
44728;SDS011;30457;53.590;9.922;2023-01-24T13:31:29;17.35;;;12.02;;
44728;SDS011;30457;53.590;9.922;2023-01-24T13:36:18;12.75;;;11.50;;
44728;SDS011;30457;53.590;9.922;2023-01-24T13:59:11;15.70;;;13.05;;
44728;SDS011;30457;53.590;9.922;2023-01-24T14:03:37;14.30;;;12.15;;
44728;SDS011;30457;53.590;9.922;2023-01-24T14:08:13;13.63;;;12.23;;
44728;SDS011;30457;53.590;9.922;2023-01-24T14:12:56;13.38;;;11.63;;
44728;SDS011;30457;53.590;9.922;2023-01-24T14:17:26;18.08;;;11.40;;
44728;SDS011;30457;53.590;9.922;2023-01-24T14:21:55;14.02;;;12.60;;
44728;SDS011;30457;53.590;9.922;2023-01-24T14:26:26;14.68;;;12.35;;
44728;SDS011;30457;53.590;9.922;2023-01-24T14:30:59;16.17;;;11.88;;
44728;SDS011;30457;53.590;9.922;2023-01-24T14:35:33;14.73;;;13.07;;
44728;SDS011;30457;53.590;9.922;2023-01-24T14:44:52;14.48;;;13.05;;
44728;SDS011;30457;53.590;9.922;2023-01-24T14:54:01;15.27;;;12.57;;
44728;SDS011;30457;53.590;9.922;2023-01-24T14:58:28;13.73;;;12.45;;
44728;SDS011;30457;53.590;9.922;2023-01-24T15:02:58;14.35;;;12.85;;
44728;SDS011;30457;53.590;9.922;2023-01-24T15:07:26;14.77;;;11.93;;
44728;SDS011;30457;53.590;9.922;2023-01-24T15:11:52;16.90;;;13.20;;
44728;SDS011;30457;53.590;9.922;2023-01-24T15:16:19;14.85;;;13.05;;
44728;SDS011;30457;53.590;9.922;2023-01-24T15:20:48;14.63;;;12.90;;
44728;SDS011;30457;53.590;9.922;2023-01-24T15:25:34;15.48;;;13.77;;
44728;SDS011;30457;53.590;9.922;2023-01-24T15:30:11;14.75;;;13.13;;
44728;SDS011;30457;53.590;9.922;2023-01-24T15:34:42;18.58;;;14.02;;
44728;SDS011;30457;53.590;9.922;2023-01-24T15:39:10;14.40;;;12.55;;
44728;SDS011;30457;53.590;9.922;2023-01-24T15:43:40;16.17;;;13.35;;
44728;SDS011;30457;53.590;9.922;2023-01-24T15:48:18;19.98;;;14.65;;
44728;SDS011;30457;53.590;9.922;2023-01-24T15:52:45;15.07;;;13.10;;
44728;SDS011;30457;53.590;9.922;2023-01-24T15:57:15;17.45;;;13.75;;
44728;SDS011;30457;53.590;9.922;2023-01-24T16:01:56;17.60;;;15.88;;
44728;SDS011;30457;53.590;9.922;2023-01-24T16:06:21;15.32;;;13.88;;
44728;SDS011;30457;53.590;9.922;2023-01-24T16:10:47;15.30;;;13.73;;
44728;SDS011;30457;53.590;9.922;2023-01-24T16:15:20;15.38;;;13.70;;
44728;SDS011;30457;53.590;9.922;2023-01-24T16:19:46;19.55;;;14.90;;
44728;SDS011;30457;53.590;9.922;2023-01-24T16:24:12;15.38;;;13.73;;
44728;SDS011;30457;53.590;9.922;2023-01-24T16:28:38;19.02;;;15.27;;
44728;SDS011;30457;53.590;9.922;2023-01-24T16:33:03;32.55;;;15.45;;
44728;SDS011;30457;53.590;9.922;2023-01-24T16:37:29;17.83;;;14.57;;
44728;SDS011;30457;53.590;9.922;2023-01-24T16:41:54;17.17;;;14.25;;
44728;SDS011;30457;53.590;9.922;2023-01-24T16:46:20;16.15;;;14.57;;
44728;SDS011;30457;53.590;9.922;2023-01-24T16:50:45;17.33;;;14.35;;
44728;SDS011;30457;53.590;9.922;2023-01-24T16:55:11;16.50;;;14.80;;
44728;SDS011;30457;53.590;9.922;2023-01-24T16:59:37;16.92;;;14.30;;
44728;SDS011;30457;53.590;9.922;2023-01-24T17:04:02;15.60;;;14.10;;
44728;SDS011;30457;53.590;9.922;2023-01-24T17:08:29;14.52;;;13.02;;
44728;SDS011;30457;53.590;9.922;2023-01-24T17:12:54;16.88;;;14.65;;
44728;SDS011;30457;53.590;9.922;2023-01-24T17:17:20;16.23;;;14.57;;
44728;SDS011;30457;53.590;9.922;2023-01-24T17:21:46;16.77;;;14.10;;
44728;SDS011;30457;53.590;9.922;2023-01-24T17:26:12;19.45;;;15.07;;
44728;SDS011;30457;53.590;9.922;2023-01-24T17:30:39;15.65;;;13.77;;
44728;SDS011;30457;53.590;9.922;2023-01-24T17:35:06;16.35;;;14.65;;
44728;SDS011;30457;53.590;9.922;2023-01-24T17:39:32;18.02;;;16.10;;
44728;SDS011;30457;53.590;9.922;2023-01-24T17:43:58;18.65;;;16.70;;
44728;SDS011;30457;53.590;9.922;2023-01-24T17:48:23;20.52;;;17.17;;
44728;SDS011;30457;53.590;9.922;2023-01-24T17:52:49;20.75;;;16.60;;
44728;SDS011;30457;53.590;9.922;2023-01-24T17:57:14;17.35;;;14.57;;
44728;SDS011;30457;53.590;9.922;2023-01-24T18:01:40;16.75;;;15.02;;
44728;SDS011;30457;53.590;9.922;2023-01-24T18:06:05;21.25;;;15.88;;
44728;SDS011;30457;53.590;9.922;2023-01-24T18:10:31;21.55;;;17.10;;
44728;SDS011;30457;53.590;9.922;2023-01-24T18:14:57;24.35;;;16.60;;
44728;SDS011;30457;53.590;9.922;2023-01-24T18:19:22;17.45;;;15.00;;
44728;SDS011;30457;53.590;9.922;2023-01-24T18:23:49;19.42;;;16.00;;
44728;SDS011;30457;53.590;9.922;2023-01-24T18:28:15;18.40;;;15.48;;
44728;SDS011;30457;53.590;9.922;2023-01-24T18:32:41;21.35;;;16.77;;
44728;SDS011;30457;53.590;9.922;2023-01-24T18:37:06;22.50;;;17.98;;
44728;SDS011;30457;53.590;9.922;2023-01-24T18:41:32;23.85;;;18.13;;
44728;SDS011;30457;53.590;9.922;2023-01-24T18:46:04;20.63;;;16.58;;
44728;SDS011;30457;53.590;9.922;2023-01-24T18:50:32;19.33;;;17.08;;
44728;SDS011;30457;53.590;9.922;2023-01-24T18:54:57;20.40;;;16.73;;
44728;SDS011;30457;53.590;9.922;2023-01-24T18:59:23;19.02;;;16.90;;
44728;SDS011;30457;53.590;9.922;2023-01-24T19:03:49;21.48;;;17.17;;
44728;SDS011;30457;53.590;9.922;2023-01-24T19:08:15;20.02;;;17.27;;
44728;SDS011;30457;53.590;9.922;2023-01-24T19:12:40;20.40;;;16.73;;
44728;SDS011;30457;53.590;9.922;2023-01-24T19:17:07;21.20;;;18.48;;
44728;SDS011;30457;53.590;9.922;2023-01-24T19:21:33;23.80;;;17.48;;
44728;SDS011;30457;53.590;9.922;2023-01-24T19:25:59;25.33;;;19.30;;
44728;SDS011;30457;53.590;9.922;2023-01-24T19:30:25;20.65;;;17.67;;
44728;SDS011;30457;53.590;9.922;2023-01-24T19:34:50;20.05;;;16.92;;
44728;SDS011;30457;53.590;9.922;2023-01-24T19:39:16;22.48;;;17.13;;
44728;SDS011;30457;53.590;9.922;2023-01-24T19:43:44;23.50;;;18.73;;
44728;SDS011;30457;53.590;9.922;2023-01-24T19:48:10;21.27;;;17.02;;
44728;SDS011;30457;53.590;9.922;2023-01-24T19:52:36;20.20;;;16.73;;
44728;SDS011;30457;53.590;9.922;2023-01-24T19:57:02;20.75;;;17.52;;
44728;SDS011;30457;53.590;9.922;2023-01-24T20:01:27;28.73;;;18.17;;
44728;SDS011;30457;53.590;9.922;2023-01-24T20:05:53;23.25;;;17.98;;
44728;SDS011;30457;53.590;9.922;2023-01-24T20:10:19;19.83;;;17.58;;
44728;SDS011;30457;53.590;9.922;2023-01-24T20:14:45;21.02;;;17.33;;
44728;SDS011;30457;53.590;9.922;2023-01-24T20:19:10;29.38;;;17.48;;
44728;SDS011;30457;53.590;9.922;2023-01-24T20:23:36;21.92;;;17.17;;
44728;SDS011;30457;53.590;9.922;2023-01-24T20:28:03;20.60;;;16.15;;
44728;SDS011;30457;53.590;9.922;2023-01-24T20:32:29;23.08;;;17.55;;
44728;SDS011;30457;53.590;9.922;2023-01-24T20:36:54;18.55;;;16.20;;
44728;SDS011;30457;53.590;9.922;2023-01-24T20:41:20;21.45;;;16.15;;
44728;SDS011;30457;53.590;9.922;2023-01-24T20:45:47;26.27;;;16.63;;
44728;SDS011;30457;53.590;9.922;2023-01-24T20:50:12;20.05;;;16.17;;
44728;SDS011;30457;53.590;9.922;2023-01-24T20:54:38;21.35;;;16.05;;
44728;SDS011;30457;53.590;9.922;2023-01-24T20:59:04;19.98;;;17.40;;
44728;SDS011;30457;53.590;9.922;2023-01-24T21:03:29;22.48;;;17.08;;
44728;SDS011;30457;53.590;9.922;2023-01-24T21:07:55;21.10;;;17.33;;
44728;SDS011;30457;53.590;9.922;2023-01-24T21:12:21;19.48;;;17.35;;
44728;SDS011;30457;53.590;9.922;2023-01-24T21:16:47;20.98;;;16.98;;
44728;SDS011;30457;53.590;9.922;2023-01-24T21:21:12;20.77;;;17.02;;
44728;SDS011;30457;53.590;9.922;2023-01-24T21:25:38;19.58;;;17.02;;
44728;SDS011;30457;53.590;9.922;2023-01-24T21:30:04;18.23;;;16.33;;
44728;SDS011;30457;53.590;9.922;2023-01-24T21:34:30;19.02;;;16.65;;
44728;SDS011;30457;53.590;9.922;2023-01-24T21:38:56;20.45;;;16.95;;
44728;SDS011;30457;53.590;9.922;2023-01-24T21:43:21;21.25;;;15.60;;
44728;SDS011;30457;53.590;9.922;2023-01-24T21:47:47;21.05;;;17.33;;
44728;SDS011;30457;53.590;9.922;2023-01-24T21:52:12;20.15;;;17.15;;
44728;SDS011;30457;53.590;9.922;2023-01-24T21:56:48;22.83;;;16.48;;
44728;SDS011;30457;53.590;9.922;2023-01-24T22:01:34;24.98;;;17.80;;
44728;SDS011;30457;53.590;9.922;2023-01-24T22:06:03;21.17;;;16.13;;
44728;SDS011;30457;53.590;9.922;2023-01-24T22:10:28;19.17;;;16.08;;
44728;SDS011;30457;53.590;9.922;2023-01-24T22:14:54;18.23;;;15.38;;
44728;SDS011;30457;53.590;9.922;2023-01-24T22:19:21;19.10;;;16.15;;
44728;SDS011;30457;53.590;9.922;2023-01-24T22:23:54;16.60;;;14.65;;
44728;SDS011;30457;53.590;9.922;2023-01-24T22:28:32;16.67;;;14.93;;
44728;SDS011;30457;53.590;9.922;2023-01-24T22:32:57;16.75;;;15.18;;
44728;SDS011;30457;53.590;9.922;2023-01-24T22:37:26;19.85;;;15.25;;
44728;SDS011;30457;53.590;9.922;2023-01-24T22:41:52;17.35;;;15.43;;
44728;SDS011;30457;53.590;9.922;2023-01-24T22:46:18;17.15;;;14.98;;
44728;SDS011;30457;53.590;9.922;2023-01-24T22:50:44;18.98;;;16.40;;
44728;SDS011;30457;53.590;9.922;2023-01-24T22:55:09;20.63;;;16.98;;
44728;SDS011;30457;53.590;9.922;2023-01-24T22:59:35;17.08;;;15.25;;
44728;SDS011;30457;53.590;9.922;2023-01-24T23:04:05;16.83;;;14.57;;
44728;SDS011;30457;53.590;9.922;2023-01-24T23:08:31;18.23;;;16.33;;
44728;SDS011;30457;53.590;9.922;2023-01-24T23:12:56;17.48;;;15.55;;
44728;SDS011;30457;53.590;9.922;2023-01-24T23:17:41;17.05;;;15.27;;
44728;SDS011;30457;53.590;9.922;2023-01-24T23:22:12;16.10;;;14.48;;
44728;SDS011;30457;53.590;9.922;2023-01-24T23:26:38;18.17;;;15.75;;
44728;SDS011;30457;53.590;9.922;2023-01-24T23:31:06;24.63;;;15.18;;
44728;SDS011;30457;53.590;9.922;2023-01-24T23:35:36;16.48;;;14.85;;
44728;SDS011;30457;53.590;9.922;2023-01-24T23:40:03;16.20;;;14.45;;
44728;SDS011;30457;53.590;9.922;2023-01-24T23:44:29;18.45;;;15.48;;
44728;SDS011;30457;53.590;9.922;2023-01-24T23:48:55;15.63;;;13.55;;
44728;SDS011;30457;53.590;9.922;2023-01-24T23:53:20;18.58;;;15.52;;
44728;SDS011;30457;53.590;9.922;2023-01-24T23:57:46;17.17;;;15.20;;
